sensor_id;sensor_type;location;lat;lon;timestamp;P1;durP1;ratioP1;P2;durP2;ratioP2
4106;SDS011;21906;50.812;7.132;2023-06-22T00:01:59;9.00;;;8.40;;
4106;SDS011;21906;50.812;7.132;2023-06-22T00:04:25;9.13;;;8.20;;
4106;SDS011;21906;50.812;7.132;2023-06-22T00:06:51;8.50;;;7.90;;
4106;SDS011;21906;50.812;7.132;2023-06-22T00:09:17;8.40;;;7.80;;
4106;SDS011;21906;50.812;7.132;2023-06-22T00:11:43;9.30;;;8.60;;
4106;SDS011;21906;50.812;7.132;2023-06-22T00:14:08;9.03;;;8.17;;
4106;SDS011;21906;50.812;7.132;2023-06-22T00:16:34;8.50;;;7.83;;
4106;SDS011;21906;50.812;7.132;2023-06-22T00:19:00;8.20;;;7.60;;
4106;SDS011;21906;50.812;7.132;2023-06-22T00:21:27;8.60;;;8.00;;
4106;SDS011;21906;50.812;7.132;2023-06-22T00:23:53;8.80;;;8.20;;
4106;SDS011;21906;50.812;7.132;2023-06-22T00:26:19;8.83;;;8.13;;
4106;SDS011;21906;50.812;7.132;2023-06-22T00:28:45;7.93;;;7.43;;
4106;SDS011;21906;50.812;7.132;2023-06-22T00:31:11;8.40;;;7.80;;
4106;SDS011;21906;50.812;7.132;2023-06-22T00:33:37;8.00;;;7.50;;
4106;SDS011;21906;50.812;7.132;2023-06-22T00:36:03;8.87;;;8.07;;
4106;SDS011;21906;50.812;7.132;2023-06-22T00:38:29;8.90;;;8.13;;
4106;SDS011;21906;50.812;7.132;2023-06-22T00:40:55;9.23;;;8.33;;
4106;SDS011;21906;50.812;7.132;2023-06-22T00:43:20;8.57;;;7.73;;
4106;SDS011;21906;50.812;7.132;2023-06-22T00:45:46;9.10;;;8.40;;
4106;SDS011;21906;50.812;7.132;2023-06-22T00:48:12;8.57;;;7.97;;
4106;SDS011;21906;50.812;7.132;2023-06-22T00:50:39;8.50;;;7.90;;
4106;SDS011;21906;50.812;7.132;2023-06-22T00:53:05;8.00;;;7.40;;
4106;SDS011;21906;50.812;7.132;2023-06-22T00:55:37;9.30;;;8.60;;
4106;SDS011;21906;50.812;7.132;2023-06-22T00:58:04;8.57;;;7.90;;
4106;SDS011;21906;50.812;7.132;2023-06-22T01:00:33;8.60;;;7.93;;
4106;SDS011;21906;50.812;7.132;2023-06-22T01:02:59;9.57;;;8.77;;
4106;SDS011;21906;50.812;7.132;2023-06-22T01:05:24;8.83;;;8.30;;
4106;SDS011;21906;50.812;7.132;2023-06-22T01:10:47;9.00;;;8.40;;
4106;SDS011;21906;50.812;7.132;2023-06-22T01:16:23;9.97;;;9.07;;
4106;SDS011;21906;50.812;7.132;2023-06-22T01:18:52;8.53;;;7.97;;
4106;SDS011;21906;50.812;7.132;2023-06-22T01:21:21;9.37;;;8.60;;
4106;SDS011;21906;50.812;7.132;2023-06-22T01:26:37;9.43;;;8.77;;
4106;SDS011;21906;50.812;7.132;2023-06-22T01:29:08;9.20;;;8.60;;
4106;SDS011;21906;50.812;7.132;2023-06-22T01:31:38;9.00;;;8.40;;
4106;SDS011;21906;50.812;7.132;2023-06-22T01:34:06;9.77;;;8.83;;
4106;SDS011;21906;50.812;7.132;2023-06-22T01:36:33;8.57;;;7.87;;
4106;SDS011;21906;50.812;7.132;2023-06-22T01:39:00;9.53;;;8.70;;
4106;SDS011;21906;50.812;7.132;2023-06-22T01:41:28;9.70;;;8.77;;
4106;SDS011;21906;50.812;7.132;2023-06-22T01:43:56;9.20;;;8.50;;
4106;SDS011;21906;50.812;7.132;2023-06-22T01:46:22;10.67;;;9.47;;
4106;SDS011;21906;50.812;7.132;2023-06-22T01:48:48;10.80;;;9.93;;
4106;SDS011;21906;50.812;7.132;2023-06-22T01:51:15;9.30;;;8.50;;
4106;SDS011;21906;50.812;7.132;2023-06-22T01:53:41;9.50;;;8.80;;
4106;SDS011;21906;50.812;7.132;2023-06-22T01:56:07;10.07;;;9.20;;
4106;SDS011;21906;50.812;7.132;2023-06-22T01:58:33;10.00;;;9.30;;
4106;SDS011;21906;50.812;7.132;2023-06-22T02:01:09;9.37;;;8.53;;
4106;SDS011;21906;50.812;7.132;2023-06-22T02:03:37;10.33;;;9.53;;
4106;SDS011;21906;50.812;7.132;2023-06-22T02:06:07;9.57;;;8.97;;
4106;SDS011;21906;50.812;7.132;2023-06-22T02:08:40;10.30;;;9.30;;
4106;SDS011;21906;50.812;7.132;2023-06-22T02:11:07;9.40;;;8.60;;
4106;SDS011;21906;50.812;7.132;2023-06-22T02:13:36;10.60;;;9.70;;
4106;SDS011;21906;50.812;7.132;2023-06-22T02:16:02;9.60;;;8.90;;
4106;SDS011;21906;50.812;7.132;2023-06-22T02:18:28;9.80;;;9.00;;
4106;SDS011;21906;50.812;7.132;2023-06-22T02:20:53;9.57;;;8.87;;
4106;SDS011;21906;50.812;7.132;2023-06-22T02:23:19;9.43;;;8.67;;
4106;SDS011;21906;50.812;7.132;2023-06-22T02:25:45;9.50;;;8.73;;
4106;SDS011;21906;50.812;7.132;2023-06-22T02:28:10;10.00;;;9.30;;
4106;SDS011;21906;50.812;7.132;2023-06-22T02:30:36;9.93;;;9.23;;
4106;SDS011;21906;50.812;7.132;2023-06-22T02:33:02;10.40;;;9.60;;
4106;SDS011;21906;50.812;7.132;2023-06-22T02:35:28;10.43;;;9.63;;
4106;SDS011;21906;50.812;7.132;2023-06-22T02:37:59;9.60;;;8.77;;
4106;SDS011;21906;50.812;7.132;2023-06-22T02:40:26;10.30;;;9.40;;
4106;SDS011;21906;50.812;7.132;2023-06-22T02:42:52;10.53;;;9.73;;
4106;SDS011;21906;50.812;7.132;2023-06-22T02:45:18;10.00;;;9.20;;
4106;SDS011;21906;50.812;7.132;2023-06-22T02:47:43;10.00;;;9.20;;
4106;SDS011;21906;50.812;7.132;2023-06-22T02:50:11;10.83;;;9.93;;
4106;SDS011;21906;50.812;7.132;2023-06-22T02:52:37;10.60;;;9.80;;
4106;SDS011;21906;50.812;7.132;2023-06-22T02:55:04;11.40;;;10.40;;
4106;SDS011;21906;50.812;7.132;2023-06-22T02:57:32;10.93;;;9.80;;
4106;SDS011;21906;50.812;7.132;2023-06-22T02:59:57;10.90;;;10.00;;
4106;SDS011;21906;50.812;7.132;2023-06-22T03:02:24;11.33;;;10.37;;
4106;SDS011;21906;50.812;7.132;2023-06-22T03:04:51;10.37;;;9.60;;
4106;SDS011;21906;50.812;7.132;2023-06-22T03:07:18;10.23;;;9.33;;
4106;SDS011;21906;50.812;7.132;2023-06-22T03:09:44;10.47;;;9.67;;
4106;SDS011;21906;50.812;7.132;2023-06-22T03:12:10;10.87;;;9.97;;
4106;SDS011;21906;50.812;7.132;2023-06-22T03:14:36;11.27;;;10.47;;
4106;SDS011;21906;50.812;7.132;2023-06-22T03:17:01;10.47;;;9.67;;
4106;SDS011;21906;50.812;7.132;2023-06-22T03:19:28;10.07;;;9.20;;
4106;SDS011;21906;50.812;7.132;2023-06-22T03:21:56;10.68;;;9.75;;
4106;SDS011;21906;50.812;7.132;2023-06-22T03:24:25;11.93;;;10.00;;
4106;SDS011;21906;50.812;7.132;2023-06-22T03:26:53;11.07;;;10.27;;
4106;SDS011;21906;50.812;7.132;2023-06-22T03:29:19;11.37;;;10.37;;
4106;SDS011;21906;50.812;7.132;2023-06-22T03:31:45;11.17;;;10.20;;
4106;SDS011;21906;50.812;7.132;2023-06-22T03:34:11;11.90;;;10.70;;
4106;SDS011;21906;50.812;7.132;2023-06-22T03:36:36;12.17;;;11.17;;
4106;SDS011;21906;50.812;7.132;2023-06-22T03:39:02;11.67;;;10.73;;
4106;SDS011;21906;50.812;7.132;2023-06-22T03:41:28;10.63;;;9.83;;
4106;SDS011;21906;50.812;7.132;2023-06-22T03:43:53;12.30;;;11.10;;
4106;SDS011;21906;50.812;7.132;2023-06-22T03:46:19;12.00;;;11.10;;
4106;SDS011;21906;50.812;7.132;2023-06-22T03:48:45;11.63;;;10.70;;
4106;SDS011;21906;50.812;7.132;2023-06-22T03:51:10;12.73;;;11.60;;
4106;SDS011;21906;50.812;7.132;2023-06-22T03:53:36;12.13;;;11.23;;
4106;SDS011;21906;50.812;7.132;2023-06-22T03:56:02;13.27;;;12.07;;
4106;SDS011;21906;50.812;7.132;2023-06-22T03:58:27;11.87;;;10.83;;
4106;SDS011;21906;50.812;7.132;2023-06-22T04:00:57;11.53;;;10.53;;
4106;SDS011;21906;50.812;7.132;2023-06-22T04:03:24;11.33;;;10.43;;
4106;SDS011;21906;50.812;7.132;2023-06-22T04:05:50;12.47;;;11.17;;
4106;SDS011;21906;50.812;7.132;2023-06-22T04:08:16;12.30;;;11.20;;
4106;SDS011;21906;50.812;7.132;2023-06-22T04:10:41;11.80;;;10.80;;
4106;SDS011;21906;50.812;7.132;2023-06-22T04:13:07;11.87;;;10.93;;
4106;SDS011;21906;50.812;7.132;2023-06-22T04:15:33;12.70;;;11.70;;
4106;SDS011;21906;50.812;7.132;2023-06-22T04:17:58;11.83;;;10.80;;
4106;SDS011;21906;50.812;7.132;2023-06-22T04:20:24;12.20;;;11.20;;
4106;SDS011;21906;50.812;7.132;2023-06-22T04:22:55;12.17;;;11.07;;
4106;SDS011;21906;50.812;7.132;2023-06-22T04:25:21;12.37;;;11.33;;
4106;SDS011;21906;50.812;7.132;2023-06-22T04:27:47;11.80;;;10.80;;
4106;SDS011;21906;50.812;7.132;2023-06-22T04:30:13;12.30;;;11.30;;
4106;SDS011;21906;50.812;7.132;2023-06-22T04:32:43;12.90;;;11.83;;
4106;SDS011;21906;50.812;7.132;2023-06-22T04:35:09;11.60;;;10.60;;
4106;SDS011;21906;50.812;7.132;2023-06-22T04:37:35;12.37;;;11.27;;
4106;SDS011;21906;50.812;7.132;2023-06-22T04:40:01;12.03;;;11.03;;
4106;SDS011;21906;50.812;7.132;2023-06-22T04:42:29;12.50;;;11.37;;
4106;SDS011;21906;50.812;7.132;2023-06-22T04:44:55;13.33;;;12.00;;
4106;SDS011;21906;50.812;7.132;2023-06-22T04:47:21;11.67;;;10.77;;
4106;SDS011;21906;50.812;7.132;2023-06-22T04:49:46;13.87;;;12.27;;
4106;SDS011;21906;50.812;7.132;2023-06-22T04:52:12;12.97;;;11.90;;
4106;SDS011;21906;50.812;7.132;2023-06-22T04:54:40;12.13;;;11.17;;
4106;SDS011;21906;50.812;7.132;2023-06-22T04:57:12;12.67;;;11.60;;
4106;SDS011;21906;50.812;7.132;2023-06-22T04:59:38;12.20;;;11.10;;
4106;SDS011;21906;50.812;7.132;2023-06-22T05:02:06;12.40;;;11.40;;
4106;SDS011;21906;50.812;7.132;2023-06-22T05:04:32;13.67;;;12.57;;
4106;SDS011;21906;50.812;7.132;2023-06-22T05:07:00;13.57;;;12.47;;
4106;SDS011;21906;50.812;7.132;2023-06-22T05:09:26;12.43;;;11.50;;
4106;SDS011;21906;50.812;7.132;2023-06-22T05:11:53;11.50;;;10.53;;
4106;SDS011;21906;50.812;7.132;2023-06-22T05:14:18;13.33;;;11.90;;
4106;SDS011;21906;50.812;7.132;2023-06-22T05:16:45;12.33;;;11.23;;
4106;SDS011;21906;50.812;7.132;2023-06-22T05:19:11;11.43;;;10.43;;
4106;SDS011;21906;50.812;7.132;2023-06-22T05:21:37;12.07;;;10.97;;
4106;SDS011;21906;50.812;7.132;2023-06-22T05:24:04;11.35;;;10.13;;
4106;SDS011;21906;50.812;7.132;2023-06-22T05:26:30;10.90;;;9.90;;
4106;SDS011;21906;50.812;7.132;2023-06-22T05:28:57;11.70;;;10.60;;
4106;SDS011;21906;50.812;7.132;2023-06-22T05:31:24;10.25;;;9.27;;
4106;SDS011;21906;50.812;7.132;2023-06-22T05:33:51;11.13;;;10.00;;
4106;SDS011;21906;50.812;7.132;2023-06-22T05:36:17;11.83;;;10.77;;
4106;SDS011;21906;50.812;7.132;2023-06-22T05:38:50;10.27;;;9.57;;
4106;SDS011;21906;50.812;7.132;2023-06-22T05:41:16;10.27;;;9.37;;
4106;SDS011;21906;50.812;7.132;2023-06-22T05:43:41;10.43;;;9.43;;
4106;SDS011;21906;50.812;7.132;2023-06-22T05:46:07;10.80;;;9.90;;
4106;SDS011;21906;50.812;7.132;2023-06-22T05:48:33;10.93;;;10.10;;
4106;SDS011;21906;50.812;7.132;2023-06-22T05:50:58;10.97;;;10.07;;
4106;SDS011;21906;50.812;7.132;2023-06-22T05:53:24;11.23;;;10.43;;
4106;SDS011;21906;50.812;7.132;2023-06-22T05:55:50;10.90;;;10.00;;
4106;SDS011;21906;50.812;7.132;2023-06-22T05:58:15;11.43;;;10.43;;
4106;SDS011;21906;50.812;7.132;2023-06-22T06:00:41;10.13;;;9.30;;
4106;SDS011;21906;50.812;7.132;2023-06-22T06:03:08;11.53;;;10.17;;
4106;SDS011;21906;50.812;7.132;2023-06-22T06:05:34;10.33;;;9.53;;
4106;SDS011;21906;50.812;7.132;2023-06-22T06:08:00;10.80;;;9.90;;
4106;SDS011;21906;50.812;7.132;2023-06-22T06:10:27;10.23;;;9.50;;
4106;SDS011;21906;50.812;7.132;2023-06-22T06:12:54;10.50;;;9.60;;
4106;SDS011;21906;50.812;7.132;2023-06-22T06:15:20;10.83;;;10.03;;
4106;SDS011;21906;50.812;7.132;2023-06-22T06:17:47;11.27;;;10.10;;
4106;SDS011;21906;50.812;7.132;2023-06-22T06:20:13;10.87;;;9.80;;
4106;SDS011;21906;50.812;7.132;2023-06-22T06:22:38;10.70;;;9.90;;
4106;SDS011;21906;50.812;7.132;2023-06-22T06:25:04;10.80;;;9.90;;
4106;SDS011;21906;50.812;7.132;2023-06-22T06:27:30;10.43;;;9.40;;
4106;SDS011;21906;50.812;7.132;2023-06-22T06:29:56;9.93;;;9.23;;
4106;SDS011;21906;50.812;7.132;2023-06-22T06:32:22;10.87;;;9.80;;
4106;SDS011;21906;50.812;7.132;2023-06-22T06:34:48;11.17;;;10.27;;
4106;SDS011;21906;50.812;7.132;2023-06-22T06:37:13;10.50;;;9.60;;
4106;SDS011;21906;50.812;7.132;2023-06-22T06:39:40;11.57;;;10.67;;
4106;SDS011;21906;50.812;7.132;2023-06-22T06:42:06;9.93;;;9.13;;
4106;SDS011;21906;50.812;7.132;2023-06-22T06:44:32;10.37;;;9.47;;
4106;SDS011;21906;50.812;7.132;2023-06-22T06:46:57;11.53;;;10.43;;
4106;SDS011;21906;50.812;7.132;2023-06-22T06:49:23;11.40;;;10.50;;
4106;SDS011;21906;50.812;7.132;2023-06-22T06:51:49;11.03;;;9.97;;
4106;SDS011;21906;50.812;7.132;2023-06-22T06:54:15;10.60;;;9.80;;
4106;SDS011;21906;50.812;7.132;2023-06-22T06:56:41;10.10;;;9.30;;
4106;SDS011;21906;50.812;7.132;2023-06-22T06:59:09;10.37;;;9.27;;
4106;SDS011;21906;50.812;7.132;2023-06-22T07:01:35;12.50;;;11.50;;
4106;SDS011;21906;50.812;7.132;2023-06-22T07:04:01;11.97;;;11.00;;
4106;SDS011;21906;50.812;7.132;2023-06-22T07:06:26;12.67;;;11.57;;
4106;SDS011;21906;50.812;7.132;2023-06-22T07:08:55;12.83;;;11.73;;
4106;SDS011;21906;50.812;7.132;2023-06-22T07:11:20;11.97;;;10.97;;
4106;SDS011;21906;50.812;7.132;2023-06-22T07:13:46;11.70;;;10.80;;
4106;SDS011;21906;50.812;7.132;2023-06-22T07:16:12;12.53;;;11.50;;
4106;SDS011;21906;50.812;7.132;2023-06-22T07:18:39;12.57;;;11.50;;
4106;SDS011;21906;50.812;7.132;2023-06-22T07:21:05;11.90;;;10.87;;
4106;SDS011;21906;50.812;7.132;2023-06-22T07:23:32;12.02;;;10.95;;
4106;SDS011;21906;50.812;7.132;2023-06-22T07:25:58;11.20;;;10.20;;
4106;SDS011;21906;50.812;7.132;2023-06-22T07:28:27;12.30;;;11.20;;
4106;SDS011;21906;50.812;7.132;2023-06-22T07:30:56;11.73;;;10.63;;
4106;SDS011;21906;50.812;7.132;2023-06-22T07:33:22;11.80;;;10.70;;
4106;SDS011;21906;50.812;7.132;2023-06-22T07:35:47;11.60;;;10.60;;
4106;SDS011;21906;50.812;7.132;2023-06-22T07:38:16;12.43;;;11.30;;
4106;SDS011;21906;50.812;7.132;2023-06-22T07:40:41;13.60;;;12.40;;
4106;SDS011;21906;50.812;7.132;2023-06-22T07:43:07;10.60;;;9.80;;
4106;SDS011;21906;50.812;7.132;2023-06-22T07:45:32;12.47;;;11.37;;
4106;SDS011;21906;50.812;7.132;2023-06-22T07:48:00;11.00;;;10.10;;
4106;SDS011;21906;50.812;7.132;2023-06-22T07:50:26;11.40;;;10.40;;
4106;SDS011;21906;50.812;7.132;2023-06-22T07:52:52;11.73;;;10.83;;
4106;SDS011;21906;50.812;7.132;2023-06-22T07:55:19;12.80;;;11.67;;
4106;SDS011;21906;50.812;7.132;2023-06-22T07:57:46;13.13;;;11.83;;
4106;SDS011;21906;50.812;7.132;2023-06-22T08:00:14;12.10;;;11.20;;
4106;SDS011;21906;50.812;7.132;2023-06-22T08:02:41;11.93;;;10.93;;
4106;SDS011;21906;50.812;7.132;2023-06-22T08:05:08;12.40;;;11.40;;
4106;SDS011;21906;50.812;7.132;2023-06-22T08:07:35;12.17;;;11.17;;
4106;SDS011;21906;50.812;7.132;2023-06-22T08:10:02;11.77;;;10.90;;
4106;SDS011;21906;50.812;7.132;2023-06-22T08:12:29;12.50;;;11.50;;
4106;SDS011;21906;50.812;7.132;2023-06-22T08:14:54;13.27;;;12.17;;
4106;SDS011;21906;50.812;7.132;2023-06-22T08:17:22;12.95;;;11.85;;
4106;SDS011;21906;50.812;7.132;2023-06-22T08:19:48;12.53;;;11.53;;
4106;SDS011;21906;50.812;7.132;2023-06-22T08:22:14;13.27;;;11.97;;
4106;SDS011;21906;50.812;7.132;2023-06-22T08:24:40;13.37;;;12.17;;
4106;SDS011;21906;50.812;7.132;2023-06-22T08:27:09;12.83;;;11.83;;
4106;SDS011;21906;50.812;7.132;2023-06-22T08:29:37;12.60;;;11.50;;
4106;SDS011;21906;50.812;7.132;2023-06-22T08:32:02;13.63;;;12.53;;
4106;SDS011;21906;50.812;7.132;2023-06-22T08:34:28;13.47;;;12.37;;
4106;SDS011;21906;50.812;7.132;2023-06-22T08:36:55;13.00;;;12.00;;
4106;SDS011;21906;50.812;7.132;2023-06-22T08:39:21;12.93;;;11.93;;
4106;SDS011;21906;50.812;7.132;2023-06-22T08:41:47;12.83;;;11.83;;
4106;SDS011;21906;50.812;7.132;2023-06-22T08:44:13;13.30;;;12.17;;
4106;SDS011;21906;50.812;7.132;2023-06-22T08:46:40;12.80;;;11.70;;
4106;SDS011;21906;50.812;7.132;2023-06-22T08:49:07;13.73;;;12.50;;
4106;SDS011;21906;50.812;7.132;2023-06-22T08:51:33;13.73;;;12.00;;
4106;SDS011;21906;50.812;7.132;2023-06-22T08:53:59;13.50;;;12.40;;
4106;SDS011;21906;50.812;7.132;2023-06-22T08:56:24;12.87;;;11.97;;
4106;SDS011;21906;50.812;7.132;2023-06-22T08:58:50;14.60;;;12.50;;
4106;SDS011;21906;50.812;7.132;2023-06-22T09:01:16;13.17;;;11.97;;
4106;SDS011;21906;50.812;7.132;2023-06-22T09:03:42;13.77;;;12.57;;
4106;SDS011;21906;50.812;7.132;2023-06-22T09:06:08;12.60;;;11.57;;
4106;SDS011;21906;50.812;7.132;2023-06-22T09:08:37;11.97;;;10.90;;
4106;SDS011;21906;50.812;7.132;2023-06-22T09:11:03;13.47;;;12.23;;
4106;SDS011;21906;50.812;7.132;2023-06-22T09:13:30;11.60;;;10.70;;
4106;SDS011;21906;50.812;7.132;2023-06-22T09:15:56;12.43;;;11.50;;
4106;SDS011;21906;50.812;7.132;2023-06-22T09:18:21;11.90;;;10.87;;
4106;SDS011;21906;50.812;7.132;2023-06-22T09:20:47;12.20;;;11.30;;
4106;SDS011;21906;50.812;7.132;2023-06-22T09:23:14;11.60;;;10.70;;
4106;SDS011;21906;50.812;7.132;2023-06-22T09:25:40;12.18;;;11.18;;
4106;SDS011;21906;50.812;7.132;2023-06-22T09:28:06;11.98;;;11.07;;
4106;SDS011;21906;50.812;7.132;2023-06-22T09:30:31;11.90;;;10.93;;
4106;SDS011;21906;50.812;7.132;2023-06-22T09:32:57;11.80;;;10.80;;
4106;SDS011;21906;50.812;7.132;2023-06-22T09:35:23;11.20;;;10.40;;
4106;SDS011;21906;50.812;7.132;2023-06-22T09:37:49;11.00;;;10.20;;
4106;SDS011;21906;50.812;7.132;2023-06-22T09:40:14;12.33;;;11.20;;
4106;SDS011;21906;50.812;7.132;2023-06-22T09:42:41;11.43;;;10.63;;
4106;SDS011;21906;50.812;7.132;2023-06-22T09:45:08;11.13;;;10.23;;
4106;SDS011;21906;50.812;7.132;2023-06-22T09:47:34;11.53;;;10.73;;
4106;SDS011;21906;50.812;7.132;2023-06-22T09:50:00;11.60;;;10.70;;
4106;SDS011;21906;50.812;7.132;2023-06-22T09:52:25;11.23;;;10.33;;
4106;SDS011;21906;50.812;7.132;2023-06-22T09:54:51;11.87;;;10.97;;
4106;SDS011;21906;50.812;7.132;2023-06-22T09:57:17;10.57;;;9.87;;
4106;SDS011;21906;50.812;7.132;2023-06-22T09:59:43;11.73;;;10.60;;
4106;SDS011;21906;50.812;7.132;2023-06-22T10:02:08;11.53;;;10.50;;
4106;SDS011;21906;50.812;7.132;2023-06-22T10:04:34;10.73;;;9.93;;
4106;SDS011;21906;50.812;7.132;2023-06-22T10:07:01;11.30;;;10.50;;
4106;SDS011;21906;50.812;7.132;2023-06-22T10:09:27;11.60;;;10.80;;
4106;SDS011;21906;50.812;7.132;2023-06-22T10:11:53;11.70;;;10.70;;
4106;SDS011;21906;50.812;7.132;2023-06-22T10:14:19;12.07;;;11.10;;
4106;SDS011;21906;50.812;7.132;2023-06-22T10:16:44;12.37;;;11.37;;
4106;SDS011;21906;50.812;7.132;2023-06-22T10:19:10;12.37;;;11.37;;
4106;SDS011;21906;50.812;7.132;2023-06-22T10:21:36;12.00;;;11.00;;
4106;SDS011;21906;50.812;7.132;2023-06-22T10:24:02;12.60;;;11.60;;
4106;SDS011;21906;50.812;7.132;2023-06-22T10:26:34;13.17;;;12.07;;
4106;SDS011;21906;50.812;7.132;2023-06-22T10:29:01;13.43;;;12.23;;
4106;SDS011;21906;50.812;7.132;2023-06-22T10:31:27;13.13;;;12.00;;
4106;SDS011;21906;50.812;7.132;2023-06-22T10:33:54;13.90;;;12.70;;
4106;SDS011;21906;50.812;7.132;2023-06-22T10:36:20;12.70;;;11.60;;
4106;SDS011;21906;50.812;7.132;2023-06-22T10:38:47;14.20;;;12.90;;
4106;SDS011;21906;50.812;7.132;2023-06-22T10:41:13;14.17;;;12.80;;
4106;SDS011;21906;50.812;7.132;2023-06-22T10:43:39;13.57;;;12.50;;
4106;SDS011;21906;50.812;7.132;2023-06-22T10:46:06;14.67;;;13.40;;
4106;SDS011;21906;50.812;7.132;2023-06-22T10:48:32;14.60;;;13.17;;
4106;SDS011;21906;50.812;7.132;2023-06-22T10:50:58;14.73;;;13.50;;
4106;SDS011;21906;50.812;7.132;2023-06-22T10:53:24;15.90;;;13.73;;
4106;SDS011;21906;50.812;7.132;2023-06-22T10:55:49;16.03;;;14.37;;
4106;SDS011;21906;50.812;7.132;2023-06-22T10:58:17;15.93;;;14.33;;
4106;SDS011;21906;50.812;7.132;2023-06-22T11:00:44;15.60;;;14.00;;
4106;SDS011;21906;50.812;7.132;2023-06-22T11:03:10;16.83;;;15.13;;
4106;SDS011;21906;50.812;7.132;2023-06-22T11:05:36;17.97;;;15.37;;
4106;SDS011;21906;50.812;7.132;2023-06-22T11:08:01;20.67;;;16.07;;
4106;SDS011;21906;50.812;7.132;2023-06-22T11:10:27;19.03;;;16.10;;
4106;SDS011;21906;50.812;7.132;2023-06-22T11:12:53;17.50;;;15.70;;
4106;SDS011;21906;50.812;7.132;2023-06-22T11:15:20;16.30;;;14.80;;
4106;SDS011;21906;50.812;7.132;2023-06-22T11:17:46;16.67;;;15.00;;
4106;SDS011;21906;50.812;7.132;2023-06-22T11:20:12;17.47;;;15.77;;
4106;SDS011;21906;50.812;7.132;2023-06-22T11:22:38;17.20;;;15.50;;
4106;SDS011;21906;50.812;7.132;2023-06-22T11:25:05;16.60;;;15.10;;
4106;SDS011;21906;50.812;7.132;2023-06-22T11:27:32;17.83;;;16.23;;
4106;SDS011;21906;50.812;7.132;2023-06-22T11:29:57;18.67;;;16.83;;
4106;SDS011;21906;50.812;7.132;2023-06-22T11:32:23;19.67;;;17.80;;
4106;SDS011;21906;50.812;7.132;2023-06-22T11:34:49;18.97;;;17.07;;
4106;SDS011;21906;50.812;7.132;2023-06-22T11:37:15;22.10;;;18.00;;
4106;SDS011;21906;50.812;7.132;2023-06-22T11:39:41;20.73;;;18.53;;
4106;SDS011;21906;50.812;7.132;2023-06-22T11:42:08;19.37;;;17.37;;
4106;SDS011;21906;50.812;7.132;2023-06-22T11:44:34;21.37;;;19.00;;
4106;SDS011;21906;50.812;7.132;2023-06-22T11:47:00;18.90;;;17.10;;
4106;SDS011;21906;50.812;7.132;2023-06-22T11:49:28;20.80;;;18.77;;
4106;SDS011;21906;50.812;7.132;2023-06-22T11:51:58;20.00;;;18.10;;
4106;SDS011;21906;50.812;7.132;2023-06-22T11:54:26;18.13;;;16.33;;
4106;SDS011;21906;50.812;7.132;2023-06-22T11:56:52;18.50;;;16.93;;
4106;SDS011;21906;50.812;7.132;2023-06-22T11:59:18;17.47;;;15.87;;
4106;SDS011;21906;50.812;7.132;2023-06-22T12:01:44;17.67;;;16.07;;
4106;SDS011;21906;50.812;7.132;2023-06-22T12:04:09;16.40;;;15.07;;
4106;SDS011;21906;50.812;7.132;2023-06-22T12:06:37;17.07;;;15.53;;
4106;SDS011;21906;50.812;7.132;2023-06-22T12:09:06;18.73;;;17.03;;
4106;SDS011;21906;50.812;7.132;2023-06-22T12:11:32;15.80;;;14.45;;
4106;SDS011;21906;50.812;7.132;2023-06-22T12:13:58;14.87;;;13.60;;
4106;SDS011;21906;50.812;7.132;2023-06-22T12:16:27;14.87;;;13.60;;
4106;SDS011;21906;50.812;7.132;2023-06-22T12:18:53;14.47;;;13.17;;
4106;SDS011;21906;50.812;7.132;2023-06-22T12:21:19;14.73;;;13.47;;
4106;SDS011;21906;50.812;7.132;2023-06-22T12:23:45;15.70;;;14.23;;
4106;SDS011;21906;50.812;7.132;2023-06-22T12:26:10;13.77;;;12.67;;
4106;SDS011;21906;50.812;7.132;2023-06-22T12:28:36;14.03;;;12.80;;
4106;SDS011;21906;50.812;7.132;2023-06-22T12:31:02;14.67;;;12.17;;
4106;SDS011;21906;50.812;7.132;2023-06-22T12:33:27;12.70;;;11.70;;
4106;SDS011;21906;50.812;7.132;2023-06-22T12:35:55;12.13;;;11.17;;
4106;SDS011;21906;50.812;7.132;2023-06-22T12:38:21;12.20;;;11.20;;
4106;SDS011;21906;50.812;7.132;2023-06-22T12:40:47;10.97;;;10.07;;
4106;SDS011;21906;50.812;7.132;2023-06-22T12:43:14;10.33;;;9.50;;
4106;SDS011;21906;50.812;7.132;2023-06-22T12:45:41;8.80;;;8.20;;
4106;SDS011;21906;50.812;7.132;2023-06-22T12:48:07;8.70;;;8.10;;
4106;SDS011;21906;50.812;7.132;2023-06-22T12:50:33;8.30;;;7.80;;
4106;SDS011;21906;50.812;7.132;2023-06-22T12:52:59;8.43;;;7.83;;
4106;SDS011;21906;50.812;7.132;2023-06-22T12:55:27;8.07;;;7.50;;
4106;SDS011;21906;50.812;7.132;2023-06-22T12:57:53;8.43;;;7.83;;
4106;SDS011;21906;50.812;7.132;2023-06-22T13:00:19;7.87;;;7.23;;
4106;SDS011;21906;50.812;7.132;2023-06-22T13:02:45;7.10;;;6.70;;
4106;SDS011;21906;50.812;7.132;2023-06-22T13:05:11;5.93;;;5.63;;
4106;SDS011;21906;50.812;7.132;2023-06-22T13:07:37;7.47;;;6.93;;
4106;SDS011;21906;50.812;7.132;2023-06-22T13:10:03;7.70;;;7.10;;
4106;SDS011;21906;50.812;7.132;2023-06-22T13:12:29;8.70;;;8.10;;
4106;SDS011;21906;50.812;7.132;2023-06-22T13:14:55;8.73;;;8.03;;
4106;SDS011;21906;50.812;7.132;2023-06-22T13:17:21;8.53;;;7.93;;
4106;SDS011;21906;50.812;7.132;2023-06-22T13:19:46;7.80;;;7.30;;
4106;SDS011;21906;50.812;7.132;2023-06-22T13:22:28;9.13;;;8.20;;
4106;SDS011;21906;50.812;7.132;2023-06-22T13:24:59;8.50;;;7.80;;
4106;SDS011;21906;50.812;7.132;2023-06-22T13:27:25;8.93;;;8.23;;
4106;SDS011;21906;50.812;7.132;2023-06-22T13:29:52;9.17;;;8.47;;
4106;SDS011;21906;50.812;7.132;2023-06-22T13:32:18;9.50;;;8.80;;
4106;SDS011;21906;50.812;7.132;2023-06-22T13:34:43;9.40;;;8.00;;
4106;SDS011;21906;50.812;7.132;2023-06-22T13:37:09;8.80;;;8.10;;
4106;SDS011;21906;50.812;7.132;2023-06-22T13:39:35;7.83;;;7.33;;
4106;SDS011;21906;50.812;7.132;2023-06-22T13:42:01;8.53;;;7.83;;
4106;SDS011;21906;50.812;7.132;2023-06-22T13:44:26;8.70;;;7.90;;
4106;SDS011;21906;50.812;7.132;2023-06-22T13:46:54;8.07;;;7.47;;
4106;SDS011;21906;50.812;7.132;2023-06-22T13:49:20;7.43;;;6.93;;
4106;SDS011;21906;50.812;7.132;2023-06-22T13:51:47;7.70;;;7.20;;
4106;SDS011;21906;50.812;7.132;2023-06-22T13:54:16;7.65;;;7.05;;
4106;SDS011;21906;50.812;7.132;2023-06-22T13:56:42;8.20;;;7.63;;
4106;SDS011;21906;50.812;7.132;2023-06-22T13:59:07;8.70;;;8.10;;
4106;SDS011;21906;50.812;7.132;2023-06-22T14:01:35;9.47;;;8.60;;
4106;SDS011;21906;50.812;7.132;2023-06-22T14:04:01;9.60;;;8.80;;
4106;SDS011;21906;50.812;7.132;2023-06-22T14:06:27;10.60;;;9.80;;
4106;SDS011;21906;50.812;7.132;2023-06-22T14:08:53;10.67;;;9.77;;
4106;SDS011;21906;50.812;7.132;2023-06-22T14:11:19;10.37;;;9.60;;
4106;SDS011;21906;50.812;7.132;2023-06-22T14:13:45;11.83;;;10.90;;
4106;SDS011;21906;50.812;7.132;2023-06-22T14:16:10;11.70;;;10.80;;
4106;SDS011;21906;50.812;7.132;2023-06-22T14:18:36;11.88;;;10.77;;
4106;SDS011;21906;50.812;7.132;2023-06-22T14:21:02;12.43;;;11.23;;
4106;SDS011;21906;50.812;7.132;2023-06-22T14:23:28;12.37;;;11.27;;
4106;SDS011;21906;50.812;7.132;2023-06-22T14:25:54;13.20;;;12.00;;
4106;SDS011;21906;50.812;7.132;2023-06-22T14:28:19;13.80;;;12.60;;
4106;SDS011;21906;50.812;7.132;2023-06-22T14:30:45;14.20;;;12.90;;
4106;SDS011;21906;50.812;7.132;2023-06-22T14:33:12;13.50;;;12.25;;
4106;SDS011;21906;50.812;7.132;2023-06-22T14:35:38;13.47;;;12.27;;
4106;SDS011;21906;50.812;7.132;2023-06-22T14:38:04;13.40;;;12.20;;
4106;SDS011;21906;50.812;7.132;2023-06-22T14:40:29;12.63;;;11.73;;
4106;SDS011;21906;50.812;7.132;2023-06-22T14:42:55;13.20;;;11.80;;
4106;SDS011;21906;50.812;7.132;2023-06-22T14:45:22;12.83;;;11.70;;
4106;SDS011;21906;50.812;7.132;2023-06-22T14:47:48;16.77;;;12.57;;